sensor_id;sensor_type;location;lat;lon;timestamp;P1;durP1;ratioP1;P2;durP2;ratioP2
53646;SDS011;39550;52.230;5.194;2023-04-15T00:01:20;7.68;;;5.00;;
53646;SDS011;39550;52.230;5.194;2023-04-15T00:03:46;7.05;;;4.97;;
53646;SDS011;39550;52.230;5.194;2023-04-15T00:06:12;7.20;;;4.85;;
53646;SDS011;39550;52.230;5.194;2023-04-15T00:08:37;8.35;;;5.28;;
53646;SDS011;39550;52.230;5.194;2023-04-15T00:11:03;7.43;;;4.97;;
53646;SDS011;39550;52.230;5.194;2023-04-15T00:13:30;9.82;;;5.10;;
53646;SDS011;39550;52.230;5.194;2023-04-15T00:15:56;9.10;;;5.05;;
53646;SDS011;39550;52.230;5.194;2023-04-15T00:18:22;10.77;;;5.03;;
53646;SDS011;39550;52.230;5.194;2023-04-15T00:20:48;7.32;;;4.85;;
53646;SDS011;39550;52.230;5.194;2023-04-15T00:23:14;6.38;;;5.03;;
53646;SDS011;39550;52.230;5.194;2023-04-15T00:25:39;8.80;;;5.18;;
53646;SDS011;39550;52.230;5.194;2023-04-15T00:28:04;8.55;;;4.95;;
53646;SDS011;39550;52.230;5.194;2023-04-15T00:30:30;8.52;;;5.35;;
53646;SDS011;39550;52.230;5.194;2023-04-15T00:32:55;7.72;;;5.15;;
53646;SDS011;39550;52.230;5.194;2023-04-15T00:35:20;6.05;;;4.88;;
53646;SDS011;39550;52.230;5.194;2023-04-15T00:37:46;7.38;;;5.07;;
53646;SDS011;39550;52.230;5.194;2023-04-15T00:40:12;7.60;;;5.05;;
53646;SDS011;39550;52.230;5.194;2023-04-15T00:42:38;8.65;;;5.70;;
53646;SDS011;39550;52.230;5.194;2023-04-15T00:45:04;8.57;;;5.20;;
53646;SDS011;39550;52.230;5.194;2023-04-15T00:47:31;7.65;;;5.07;;
53646;SDS011;39550;52.230;5.194;2023-04-15T00:49:57;6.65;;;5.40;;
53646;SDS011;39550;52.230;5.194;2023-04-15T00:52:23;7.43;;;4.88;;
53646;SDS011;39550;52.230;5.194;2023-04-15T00:54:48;9.25;;;5.32;;
53646;SDS011;39550;52.230;5.194;2023-04-15T00:57:15;7.32;;;5.13;;
53646;SDS011;39550;52.230;5.194;2023-04-15T00:59:41;9.40;;;5.32;;
53646;SDS011;39550;52.230;5.194;2023-04-15T01:02:06;7.65;;;5.28;;
53646;SDS011;39550;52.230;5.194;2023-04-15T01:04:32;6.90;;;4.78;;
53646;SDS011;39550;52.230;5.194;2023-04-15T01:06:57;6.30;;;4.80;;
53646;SDS011;39550;52.230;5.194;2023-04-15T01:09:22;7.13;;;5.28;;
53646;SDS011;39550;52.230;5.194;2023-04-15T01:11:48;8.25;;;5.13;;
53646;SDS011;39550;52.230;5.194;2023-04-15T01:14:13;6.82;;;5.35;;
53646;SDS011;39550;52.230;5.194;2023-04-15T01:16:40;6.78;;;4.95;;
53646;SDS011;39550;52.230;5.194;2023-04-15T01:19:07;6.45;;;4.82;;
53646;SDS011;39550;52.230;5.194;2023-04-15T01:21:37;7.15;;;5.22;;
53646;SDS011;39550;52.230;5.194;2023-04-15T01:24:05;8.27;;;5.15;;
53646;SDS011;39550;52.230;5.194;2023-04-15T01:26:34;6.97;;;4.85;;
53646;SDS011;39550;52.230;5.194;2023-04-15T01:29:01;6.85;;;5.00;;
53646;SDS011;39550;52.230;5.194;2023-04-15T01:31:27;8.38;;;5.38;;
53646;SDS011;39550;52.230;5.194;2023-04-15T01:33:52;8.13;;;5.63;;
53646;SDS011;39550;52.230;5.194;2023-04-15T01:36:17;7.40;;;5.28;;
53646;SDS011;39550;52.230;5.194;2023-04-15T01:38:43;7.25;;;5.28;;
53646;SDS011;39550;52.230;5.194;2023-04-15T01:41:08;6.25;;;5.20;;
53646;SDS011;39550;52.230;5.194;2023-04-15T01:43:34;6.80;;;4.97;;
53646;SDS011;39550;52.230;5.194;2023-04-15T01:46:02;7.50;;;5.55;;
53646;SDS011;39550;52.230;5.194;2023-04-15T01:48:28;8.73;;;5.05;;
53646;SDS011;39550;52.230;5.194;2023-04-15T01:50:53;7.65;;;4.72;;
53646;SDS011;39550;52.230;5.194;2023-04-15T01:53:21;6.43;;;5.35;;
53646;SDS011;39550;52.230;5.194;2023-04-15T01:55:46;6.85;;;5.22;;
53646;SDS011;39550;52.230;5.194;2023-04-15T01:58:12;7.15;;;4.82;;
53646;SDS011;39550;52.230;5.194;2023-04-15T02:00:37;7.20;;;4.88;;
53646;SDS011;39550;52.230;5.194;2023-04-15T02:03:02;6.68;;;5.13;;
53646;SDS011;39550;52.230;5.194;2023-04-15T02:05:28;6.60;;;5.10;;
53646;SDS011;39550;52.230;5.194;2023-04-15T02:07:53;8.00;;;4.90;;
53646;SDS011;39550;52.230;5.194;2023-04-15T02:10:19;7.60;;;4.70;;
53646;SDS011;39550;52.230;5.194;2023-04-15T02:12:44;9.50;;;5.40;;
53646;SDS011;39550;52.230;5.194;2023-04-15T02:15:10;7.40;;;5.82;;
53646;SDS011;39550;52.230;5.194;2023-04-15T02:17:36;5.70;;;4.50;;
53646;SDS011;39550;52.230;5.194;2023-04-15T02:20:01;7.13;;;5.00;;
53646;SDS011;39550;52.230;5.194;2023-04-15T02:22:29;7.75;;;5.25;;
53646;SDS011;39550;52.230;5.194;2023-04-15T02:24:55;7.32;;;4.88;;
53646;SDS011;39550;52.230;5.194;2023-04-15T02:27:20;6.97;;;4.90;;
53646;SDS011;39550;52.230;5.194;2023-04-15T02:29:46;7.03;;;4.88;;
53646;SDS011;39550;52.230;5.194;2023-04-15T02:32:12;9.65;;;5.30;;
53646;SDS011;39550;52.230;5.194;2023-04-15T02:34:38;8.85;;;5.40;;
53646;SDS011;39550;52.230;5.194;2023-04-15T02:37:06;8.07;;;5.15;;
53646;SDS011;39550;52.230;5.194;2023-04-15T02:39:35;6.68;;;4.88;;
53646;SDS011;39550;52.230;5.194;2023-04-15T02:42:01;6.63;;;4.90;;
53646;SDS011;39550;52.230;5.194;2023-04-15T02:44:27;6.82;;;4.95;;
53646;SDS011;39550;52.230;5.194;2023-04-15T02:46:52;7.70;;;5.05;;
53646;SDS011;39550;52.230;5.194;2023-04-15T02:49:21;6.75;;;4.68;;
53646;SDS011;39550;52.230;5.194;2023-04-15T02:51:47;6.35;;;5.35;;
53646;SDS011;39550;52.230;5.194;2023-04-15T02:54:23;8.63;;;4.80;;
53646;SDS011;39550;52.230;5.194;2023-04-15T02:56:48;7.15;;;5.10;;
53646;SDS011;39550;52.230;5.194;2023-04-15T02:59:14;7.63;;;4.88;;
53646;SDS011;39550;52.230;5.194;2023-04-15T03:01:40;8.32;;;5.53;;
53646;SDS011;39550;52.230;5.194;2023-04-15T03:04:06;6.88;;;5.20;;
53646;SDS011;39550;52.230;5.194;2023-04-15T03:06:32;6.63;;;4.55;;
53646;SDS011;39550;52.230;5.194;2023-04-15T03:08:58;6.50;;;4.50;;
53646;SDS011;39550;52.230;5.194;2023-04-15T03:11:24;6.53;;;5.00;;
53646;SDS011;39550;52.230;5.194;2023-04-15T03:13:51;6.43;;;4.82;;
53646;SDS011;39550;52.230;5.194;2023-04-15T03:16:16;7.85;;;4.60;;
53646;SDS011;39550;52.230;5.194;2023-04-15T03:18:41;6.78;;;4.72;;
53646;SDS011;39550;52.230;5.194;2023-04-15T03:21:07;7.95;;;5.05;;
53646;SDS011;39550;52.230;5.194;2023-04-15T03:23:32;9.07;;;5.38;;
53646;SDS011;39550;52.230;5.194;2023-04-15T03:26:00;7.10;;;4.80;;
53646;SDS011;39550;52.230;5.194;2023-04-15T03:28:26;7.30;;;5.07;;
53646;SDS011;39550;52.230;5.194;2023-04-15T03:30:51;8.32;;;5.25;;
53646;SDS011;39550;52.230;5.194;2023-04-15T03:33:17;6.45;;;4.90;;
53646;SDS011;39550;52.230;5.194;2023-04-15T03:35:42;8.13;;;5.20;;
53646;SDS011;39550;52.230;5.194;2023-04-15T03:38:07;10.27;;;5.25;;
53646;SDS011;39550;52.230;5.194;2023-04-15T03:40:33;8.15;;;4.53;;
53646;SDS011;39550;52.230;5.194;2023-04-15T03:42:58;6.82;;;4.90;;
53646;SDS011;39550;52.230;5.194;2023-04-15T03:45:24;5.93;;;4.85;;
53646;SDS011;39550;52.230;5.194;2023-04-15T03:47:56;7.25;;;4.82;;
53646;SDS011;39550;52.230;5.194;2023-04-15T03:50:21;7.13;;;5.18;;
53646;SDS011;39550;52.230;5.194;2023-04-15T03:52:46;6.20;;;4.47;;
53646;SDS011;39550;52.230;5.194;2023-04-15T03:55:12;8.40;;;5.00;;
53646;SDS011;39550;52.230;5.194;2023-04-15T03:57:38;7.10;;;4.60;;
53646;SDS011;39550;52.230;5.194;2023-04-15T04:00:04;7.45;;;4.80;;
53646;SDS011;39550;52.230;5.194;2023-04-15T04:02:30;8.48;;;5.10;;
53646;SDS011;39550;52.230;5.194;2023-04-15T04:04:56;6.68;;;4.65;;
53646;SDS011;39550;52.230;5.194;2023-04-15T04:07:22;8.75;;;4.82;;
53646;SDS011;39550;52.230;5.194;2023-04-15T04:09:47;7.00;;;5.15;;
53646;SDS011;39550;52.230;5.194;2023-04-15T04:12:13;9.32;;;5.70;;
53646;SDS011;39550;52.230;5.194;2023-04-15T04:14:38;7.38;;;4.95;;
53646;SDS011;39550;52.230;5.194;2023-04-15T04:17:03;9.60;;;5.50;;
53646;SDS011;39550;52.230;5.194;2023-04-15T04:19:29;8.50;;;5.30;;
53646;SDS011;39550;52.230;5.194;2023-04-15T04:21:54;7.07;;;4.82;;
53646;SDS011;39550;52.230;5.194;2023-04-15T04:24:20;9.18;;;5.53;;
53646;SDS011;39550;52.230;5.194;2023-04-15T04:26:45;6.63;;;5.03;;
53646;SDS011;39550;52.230;5.194;2023-04-15T04:29:10;6.85;;;5.00;;
53646;SDS011;39550;52.230;5.194;2023-04-15T04:31:36;7.60;;;5.18;;
53646;SDS011;39550;52.230;5.194;2023-04-15T04:34:01;8.90;;;5.40;;
53646;SDS011;39550;52.230;5.194;2023-04-15T04:36:26;7.18;;;4.68;;
53646;SDS011;39550;52.230;5.194;2023-04-15T04:38:52;8.70;;;4.90;;
53646;SDS011;39550;52.230;5.194;2023-04-15T04:41:17;7.07;;;4.68;;
53646;SDS011;39550;52.230;5.194;2023-04-15T04:43:42;7.15;;;5.50;;
53646;SDS011;39550;52.230;5.194;2023-04-15T04:46:08;7.07;;;5.20;;
53646;SDS011;39550;52.230;5.194;2023-04-15T04:48:34;9.38;;;5.10;;
53646;SDS011;39550;52.230;5.194;2023-04-15T04:50:59;7.35;;;5.20;;
53646;SDS011;39550;52.230;5.194;2023-04-15T04:53:25;8.40;;;5.72;;
53646;SDS011;39550;52.230;5.194;2023-04-15T04:55:50;7.78;;;4.90;;
53646;SDS011;39550;52.230;5.194;2023-04-15T04:58:16;7.18;;;4.80;;
53646;SDS011;39550;52.230;5.194;2023-04-15T05:00:41;9.23;;;5.40;;
53646;SDS011;39550;52.230;5.194;2023-04-15T05:03:07;9.70;;;5.35;;
53646;SDS011;39550;52.230;5.194;2023-04-15T05:05:32;7.85;;;4.88;;
53646;SDS011;39550;52.230;5.194;2023-04-15T05:07:59;6.93;;;4.63;;
53646;SDS011;39550;52.230;5.194;2023-04-15T05:10:25;8.73;;;5.68;;
53646;SDS011;39550;52.230;5.194;2023-04-15T05:12:50;8.25;;;5.15;;
53646;SDS011;39550;52.230;5.194;2023-04-15T05:15:16;7.50;;;5.38;;
53646;SDS011;39550;52.230;5.194;2023-04-15T05:17:41;7.82;;;5.00;;
53646;SDS011;39550;52.230;5.194;2023-04-15T05:20:07;7.30;;;4.85;;
53646;SDS011;39550;52.230;5.194;2023-04-15T05:22:33;9.27;;;5.50;;
53646;SDS011;39550;52.230;5.194;2023-04-15T05:24:59;8.68;;;4.78;;
53646;SDS011;39550;52.230;5.194;2023-04-15T05:27:24;8.75;;;5.97;;
53646;SDS011;39550;52.230;5.194;2023-04-15T05:29:49;9.35;;;5.65;;
53646;SDS011;39550;52.230;5.194;2023-04-15T05:32:15;7.72;;;5.65;;
53646;SDS011;39550;52.230;5.194;2023-04-15T05:34:40;7.70;;;5.10;;
53646;SDS011;39550;52.230;5.194;2023-04-15T05:37:06;8.00;;;5.22;;
53646;SDS011;39550;52.230;5.194;2023-04-15T05:39:31;7.85;;;5.78;;
53646;SDS011;39550;52.230;5.194;2023-04-15T05:41:57;10.18;;;5.68;;
53646;SDS011;39550;52.230;5.194;2023-04-15T05:44:23;9.18;;;5.40;;
53646;SDS011;39550;52.230;5.194;2023-04-15T05:46:49;7.35;;;5.28;;
53646;SDS011;39550;52.230;5.194;2023-04-15T05:49:14;7.93;;;5.30;;
53646;SDS011;39550;52.230;5.194;2023-04-15T05:51:40;6.75;;;5.15;;
53646;SDS011;39550;52.230;5.194;2023-04-15T05:54:05;7.55;;;5.15;;
53646;SDS011;39550;52.230;5.194;2023-04-15T05:56:30;7.68;;;5.40;;
53646;SDS011;39550;52.230;5.194;2023-04-15T05:58:56;8.77;;;6.03;;
53646;SDS011;39550;52.230;5.194;2023-04-15T06:01:21;10.52;;;6.20;;
53646;SDS011;39550;52.230;5.194;2023-04-15T06:03:47;9.15;;;5.82;;
53646;SDS011;39550;52.230;5.194;2023-04-15T06:06:12;10.55;;;5.65;;
53646;SDS011;39550;52.230;5.194;2023-04-15T06:08:38;13.52;;;6.35;;
53646;SDS011;39550;52.230;5.194;2023-04-15T06:11:03;10.75;;;5.75;;
53646;SDS011;39550;52.230;5.194;2023-04-15T06:13:29;10.07;;;6.28;;
53646;SDS011;39550;52.230;5.194;2023-04-15T06:15:54;10.57;;;6.10;;
53646;SDS011;39550;52.230;5.194;2023-04-15T06:18:19;9.48;;;5.90;;
53646;SDS011;39550;52.230;5.194;2023-04-15T06:20:45;11.30;;;6.07;;
53646;SDS011;39550;52.230;5.194;2023-04-15T06:23:10;7.63;;;5.70;;
53646;SDS011;39550;52.230;5.194;2023-04-15T06:25:36;9.45;;;5.63;;
53646;SDS011;39550;52.230;5.194;2023-04-15T06:28:01;9.73;;;6.70;;
53646;SDS011;39550;52.230;5.194;2023-04-15T06:30:26;9.82;;;6.30;;
53646;SDS011;39550;52.230;5.194;2023-04-15T06:32:52;7.78;;;5.65;;
53646;SDS011;39550;52.230;5.194;2023-04-15T06:35:18;9.55;;;6.07;;
53646;SDS011;39550;52.230;5.194;2023-04-15T06:37:44;7.85;;;5.63;;
53646;SDS011;39550;52.230;5.194;2023-04-15T06:40:09;12.07;;;5.97;;
53646;SDS011;39550;52.230;5.194;2023-04-15T06:42:35;16.77;;;7.10;;
53646;SDS011;39550;52.230;5.194;2023-04-15T06:45:02;10.45;;;7.03;;
53646;SDS011;39550;52.230;5.194;2023-04-15T06:47:27;12.32;;;7.47;;
53646;SDS011;39550;52.230;5.194;2023-04-15T06:49:53;12.52;;;7.60;;
53646;SDS011;39550;52.230;5.194;2023-04-15T06:52:18;13.48;;;8.07;;
53646;SDS011;39550;52.230;5.194;2023-04-15T06:54:43;12.05;;;8.05;;
53646;SDS011;39550;52.230;5.194;2023-04-15T06:57:09;12.52;;;7.00;;
53646;SDS011;39550;52.230;5.194;2023-04-15T06:59:34;12.90;;;7.45;;
53646;SDS011;39550;52.230;5.194;2023-04-15T07:02:00;13.45;;;7.13;;
53646;SDS011;39550;52.230;5.194;2023-04-15T07:04:25;13.15;;;7.25;;
53646;SDS011;39550;52.230;5.194;2023-04-15T07:06:51;13.32;;;7.60;;
53646;SDS011;39550;52.230;5.194;2023-04-15T07:09:17;10.77;;;7.32;;
53646;SDS011;39550;52.230;5.194;2023-04-15T07:11:43;14.30;;;7.80;;
53646;SDS011;39550;52.230;5.194;2023-04-15T07:14:09;13.18;;;7.75;;
53646;SDS011;39550;52.230;5.194;2023-04-15T07:16:34;11.65;;;7.70;;
53646;SDS011;39550;52.230;5.194;2023-04-15T07:19:00;11.23;;;7.03;;
53646;SDS011;39550;52.230;5.194;2023-04-15T07:21:25;13.00;;;7.32;;
53646;SDS011;39550;52.230;5.194;2023-04-15T07:23:51;11.32;;;6.97;;
53646;SDS011;39550;52.230;5.194;2023-04-15T07:26:17;12.05;;;7.90;;
53646;SDS011;39550;52.230;5.194;2023-04-15T07:28:42;11.55;;;7.60;;
53646;SDS011;39550;52.230;5.194;2023-04-15T07:31:08;11.82;;;6.85;;
53646;SDS011;39550;52.230;5.194;2023-04-15T07:33:33;11.75;;;8.02;;
53646;SDS011;39550;52.230;5.194;2023-04-15T07:35:58;11.52;;;7.95;;
53646;SDS011;39550;52.230;5.194;2023-04-15T07:38:24;10.13;;;7.35;;
53646;SDS011;39550;52.230;5.194;2023-04-15T07:40:50;11.48;;;8.05;;
53646;SDS011;39550;52.230;5.194;2023-04-15T07:43:15;11.40;;;7.82;;
53646;SDS011;39550;52.230;5.194;2023-04-15T07:45:40;11.10;;;7.18;;
53646;SDS011;39550;52.230;5.194;2023-04-15T07:48:06;10.15;;;7.07;;
53646;SDS011;39550;52.230;5.194;2023-04-15T07:50:32;10.50;;;7.25;;
53646;SDS011;39550;52.230;5.194;2023-04-15T07:52:57;11.05;;;6.65;;
53646;SDS011;39550;52.230;5.194;2023-04-15T07:55:22;10.85;;;7.88;;
53646;SDS011;39550;52.230;5.194;2023-04-15T07:57:48;9.68;;;6.95;;
53646;SDS011;39550;52.230;5.194;2023-04-15T08:00:14;9.25;;;6.43;;
53646;SDS011;39550;52.230;5.194;2023-04-15T08:02:41;9.00;;;6.43;;
53646;SDS011;39550;52.230;5.194;2023-04-15T08:05:07;11.90;;;6.60;;
53646;SDS011;39550;52.230;5.194;2023-04-15T08:07:35;11.50;;;7.15;;
53646;SDS011;39550;52.230;5.194;2023-04-15T08:10:01;9.30;;;6.82;;
53646;SDS011;39550;52.230;5.194;2023-04-15T08:12:26;9.13;;;6.40;;
53646;SDS011;39550;52.230;5.194;2023-04-15T08:14:52;10.05;;;6.88;;
53646;SDS011;39550;52.230;5.194;2023-04-15T08:17:19;10.07;;;7.15;;
53646;SDS011;39550;52.230;5.194;2023-04-15T08:19:44;10.05;;;7.40;;
53646;SDS011;39550;52.230;5.194;2023-04-15T08:22:10;9.95;;;7.18;;
53646;SDS011;39550;52.230;5.194;2023-04-15T08:24:36;11.13;;;7.63;;
53646;SDS011;39550;52.230;5.194;2023-04-15T08:27:01;10.40;;;6.88;;
53646;SDS011;39550;52.230;5.194;2023-04-15T08:29:29;9.00;;;5.88;;
53646;SDS011;39550;52.230;5.194;2023-04-15T08:31:55;10.00;;;6.53;;
53646;SDS011;39550;52.230;5.194;2023-04-15T08:34:20;10.07;;;6.40;;
53646;SDS011;39550;52.230;5.194;2023-04-15T08:36:46;9.48;;;6.53;;
53646;SDS011;39550;52.230;5.194;2023-04-15T08:39:12;8.82;;;6.53;;
53646;SDS011;39550;52.230;5.194;2023-04-15T08:41:49;9.60;;;6.03;;
53646;SDS011;39550;52.230;5.194;2023-04-15T08:44:20;9.30;;;6.20;;
53646;SDS011;39550;52.230;5.194;2023-04-15T08:46:48;9.60;;;6.43;;
53646;SDS011;39550;52.230;5.194;2023-04-15T08:49:14;9.23;;;6.00;;
53646;SDS011;39550;52.230;5.194;2023-04-15T08:51:43;8.88;;;5.55;;
53646;SDS011;39550;52.230;5.194;2023-04-15T08:54:09;8.80;;;6.05;;
53646;SDS011;39550;52.230;5.194;2023-04-15T08:56:35;9.05;;;5.85;;
53646;SDS011;39550;52.230;5.194;2023-04-15T08:59:01;8.70;;;5.25;;
53646;SDS011;39550;52.230;5.194;2023-04-15T09:01:27;7.63;;;5.78;;
53646;SDS011;39550;52.230;5.194;2023-04-15T09:03:53;7.75;;;5.47;;
53646;SDS011;39550;52.230;5.194;2023-04-15T09:06:19;7.45;;;5.40;;
53646;SDS011;39550;52.230;5.194;2023-04-15T09:08:45;8.60;;;5.68;;
53646;SDS011;39550;52.230;5.194;2023-04-15T09:11:11;7.35;;;5.57;;
53646;SDS011;39550;52.230;5.194;2023-04-15T09:13:37;7.53;;;5.30;;
53646;SDS011;39550;52.230;5.194;2023-04-15T09:16:03;9.13;;;5.93;;
53646;SDS011;39550;52.230;5.194;2023-04-15T09:18:31;7.88;;;5.30;;
53646;SDS011;39550;52.230;5.194;2023-04-15T09:21:13;7.18;;;5.10;;
53646;SDS011;39550;52.230;5.194;2023-04-15T09:23:41;6.32;;;4.53;;
53646;SDS011;39550;52.230;5.194;2023-04-15T09:26:28;8.13;;;4.85;;
53646;SDS011;39550;52.230;5.194;2023-04-15T09:29:01;8.38;;;5.18;;
53646;SDS011;39550;52.230;5.194;2023-04-15T09:31:30;8.60;;;4.63;;
53646;SDS011;39550;52.230;5.194;2023-04-15T09:33:57;7.57;;;4.75;;
53646;SDS011;39550;52.230;5.194;2023-04-15T09:36:22;13.10;;;5.22;;
53646;SDS011;39550;52.230;5.194;2023-04-15T09:38:55;11.70;;;5.47;;
53646;SDS011;39550;52.230;5.194;2023-04-15T09:41:21;7.60;;;4.72;;
53646;SDS011;39550;52.230;5.194;2023-04-15T09:43:48;8.65;;;4.65;;
53646;SDS011;39550;52.230;5.194;2023-04-15T09:46:13;7.20;;;4.50;;
53646;SDS011;39550;52.230;5.194;2023-04-15T09:48:38;6.72;;;4.40;;
53646;SDS011;39550;52.230;5.194;2023-04-15T09:51:04;8.07;;;4.10;;
53646;SDS011;39550;52.230;5.194;2023-04-15T09:53:31;8.02;;;4.28;;
53646;SDS011;39550;52.230;5.194;2023-04-15T09:55:58;8.55;;;4.20;;
53646;SDS011;39550;52.230;5.194;2023-04-15T09:58:31;6.45;;;4.22;;
53646;SDS011;39550;52.230;5.194;2023-04-15T10:00:59;6.25;;;4.28;;
53646;SDS011;39550;52.230;5.194;2023-04-15T10:03:28;6.95;;;3.63;;
53646;SDS011;39550;52.230;5.194;2023-04-15T10:05:59;7.65;;;4.20;;
53646;SDS011;39550;52.230;5.194;2023-04-15T10:08:27;7.03;;;4.10;;
53646;SDS011;39550;52.230;5.194;2023-04-15T10:10:53;10.45;;;4.38;;
53646;SDS011;39550;52.230;5.194;2023-04-15T10:13:20;6.90;;;3.83;;
53646;SDS011;39550;52.230;5.194;2023-04-15T10:15:49;7.78;;;4.05;;
53646;SDS011;39550;52.230;5.194;2023-04-15T10:18:20;6.70;;;4.18;;
53646;SDS011;39550;52.230;5.194;2023-04-15T10:20:49;6.53;;;3.60;;
53646;SDS011;39550;52.230;5.194;2023-04-15T10:23:15;7.28;;;3.80;;
53646;SDS011;39550;52.230;5.194;2023-04-15T10:25:43;6.63;;;3.70;;
53646;SDS011;39550;52.230;5.194;2023-04-15T10:28:10;6.95;;;4.00;;
53646;SDS011;39550;52.230;5.194;2023-04-15T10:30:36;6.20;;;3.80;;
53646;SDS011;39550;52.230;5.194;2023-04-15T10:33:02;6.95;;;4.03;;
53646;SDS011;39550;52.230;5.194;2023-04-15T10:35:28;7.00;;;3.65;;
53646;SDS011;39550;52.230;5.194;2023-04-15T10:37:55;5.65;;;4.18;;
53646;SDS011;39550;52.230;5.194;2023-04-15T10:40:27;6.05;;;4.20;;
53646;SDS011;39550;52.230;5.194;2023-04-15T10:42:59;6.03;;;3.95;;
53646;SDS011;39550;52.230;5.194;2023-04-15T10:45:26;9.23;;;4.38;;
53646;SDS011;39550;52.230;5.194;2023-04-15T10:47:56;6.78;;;4.15;;
53646;SDS011;39550;52.230;5.194;2023-04-15T10:50:25;7.20;;;4.43;;
53646;SDS011;39550;52.230;5.194;2023-04-15T10:52:52;6.72;;;4.18;;
53646;SDS011;39550;52.230;5.194;2023-04-15T10:55:19;6.75;;;4.20;;
53646;SDS011;39550;52.230;5.194;2023-04-15T10:57:46;6.70;;;4.47;;
53646;SDS011;39550;52.230;5.194;2023-04-15T11:00:17;7.93;;;4.32;;
53646;SDS011;39550;52.230;5.194;2023-04-15T11:05:11;8.98;;;4.63;;
53646;SDS011;39550;52.230;5.194;2023-04-15T11:12:37;7.55;;;5.13;;
53646;SDS011;39550;52.230;5.194;2023-04-15T11:18:19;6.88;;;4.88;;
53646;SDS011;39550;52.230;5.194;2023-04-15T11:20:49;7.05;;;4.85;;
53646;SDS011;39550;52.230;5.194;2023-04-15T11:23:19;6.97;;;4.53;;
53646;SDS011;39550;52.230;5.194;2023-04-15T11:25:53;6.05;;;4.00;;
53646;SDS011;39550;52.230;5.194;2023-04-15T11:28:19;7.90;;;4.35;;
53646;SDS011;39550;52.230;5.194;2023-04-15T11:30:44;6.35;;;3.88;;
53646;SDS011;39550;52.230;5.194;2023-04-15T11:33:10;6.25;;;3.95;;
53646;SDS011;39550;52.230;5.194;2023-04-15T11:35:36;6.22;;;3.63;;
53646;SDS011;39550;52.230;5.194;2023-04-15T11:38:02;6.75;;;4.03;;
53646;SDS011;39550;52.230;5.194;2023-04-15T11:40:29;6.75;;;3.90;;
53646;SDS011;39550;52.230;5.194;2023-04-15T11:45:30;7.75;;;3.90;;
53646;SDS011;39550;52.230;5.194;2023-04-15T11:48:04;6.35;;;3.85;;
53646;SDS011;39550;52.230;5.194;2023-04-15T11:50:31;6.20;;;3.42;;
53646;SDS011;39550;52.230;5.194;2023-04-15T11:52:57;6.15;;;3.75;;
53646;SDS011;39550;52.230;5.194;2023-04-15T11:55:23;6.82;;;3.60;;
53646;SDS011;39550;52.230;5.194;2023-04-15T11:58:04;5.95;;;3.67;;
53646;SDS011;39550;52.230;5.194;2023-04-15T12:00:33;5.32;;;3.38;;
53646;SDS011;39550;52.230;5.194;2023-04-15T12:16:47;6.60;;;3.67;;
53646;SDS011;39550;52.230;5.194;2023-04-15T12:19:14;5.80;;;3.10;;
53646;SDS011;39550;52.230;5.194;2023-04-15T12:21:45;4.90;;;3.30;;
53646;SDS011;39550;52.230;5.194;2023-04-15T12:24:12;6.78;;;3.55;;
53646;SDS011;39550;52.230;5.194;2023-04-15T12:26:46;5.22;;;3.13;;
53646;SDS011;39550;52.230;5.194;2023-04-15T12:29:13;5.28;;;3.03;;
53646;SDS011;39550;52.230;5.194;2023-04-15T12:31:49;6.00;;;3.33;;
53646;SDS011;39550;52.230;5.194;2023-04-15T12:34:28;5.57;;;2.92;;
53646;SDS011;39550;52.230;5.194;2023-04-15T12:36:59;5.63;;;3.20;;
53646;SDS011;39550;52.230;5.194;2023-04-15T12:39:26;6.38;;;3.08;;
53646;SDS011;39550;52.230;5.194;2023-04-15T12:41:53;6.95;;;3.15;;
53646;SDS011;39550;52.230;5.194;2023-04-15T12:44:21;4.90;;;2.92;;
53646;SDS011;39550;52.230;5.194;2023-04-15T12:46:48;7.15;;;3.28;;
53646;SDS011;39550;52.230;5.194;2023-04-15T12:49:14;4.90;;;2.95;;
53646;SDS011;39550;52.230;5.194;2023-04-15T12:51:40;6.93;;;3.35;;
53646;SDS011;39550;52.230;5.194;2023-04-15T13:04:19;5.35;;;3.35;;
53646;SDS011;39550;52.230;5.194;2023-04-15T13:06:45;6.07;;;3.00;;
53646;SDS011;39550;52.230;5.194;2023-04-15T13:09:10;6.45;;;3.33;;
53646;SDS011;39550;52.230;5.194;2023-04-15T13:11:36;6.50;;;3.10;;
53646;SDS011;39550;52.230;5.194;2023-04-15T13:14:02;4.65;;;3.00;;
53646;SDS011;39550;52.230;5.194;2023-04-15T13:16:29;7.97;;;3.25;;
53646;SDS011;39550;52.230;5.194;2023-04-15T13:18:54;9.30;;;3.40;;
53646;SDS011;39550;52.230;5.194;2023-04-15T13:21:20;5.85;;;2.80;;
53646;SDS011;39550;52.230;5.194;2023-04-15T13:23:45;4.80;;;2.85;;
53646;SDS011;39550;52.230;5.194;2023-04-15T13:26:12;6.18;;;2.63;;
53646;SDS011;39550;52.230;5.194;2023-04-15T13:28:37;6.32;;;3.10;;
53646;SDS011;39550;52.230;5.194;2023-04-15T13:31:04;6.38;;;3.05;;
53646;SDS011;39550;52.230;5.194;2023-04-15T13:33:29;6.32;;;2.88;;
53646;SDS011;39550;52.230;5.194;2023-04-15T13:35:55;6.22;;;2.88;;
53646;SDS011;39550;52.230;5.194;2023-04-15T13:38:20;5.60;;;2.92;;
53646;SDS011;39550;52.230;5.194;2023-04-15T13:40:45;5.75;;;2.55;;
53646;SDS011;39550;52.230;5.194;2023-04-15T13:43:11;5.60;;;2.60;;
53646;SDS011;39550;52.230;5.194;2023-04-15T13:45:36;7.15;;;2.33;;
53646;SDS011;39550;52.230;5.194;2023-04-15T13:48:01;8.27;;;2.97;;
53646;SDS011;39550;52.230;5.194;2023-04-15T13:50:27;6.53;;;2.53;;
53646;SDS011;39550;52.230;5.194;2023-04-15T13:52:53;6.65;;;2.20;;
53646;SDS011;39550;52.230;5.194;2023-04-15T13:55:18;5.20;;;2.50;;
53646;SDS011;39550;52.230;5.194;2023-04-15T13:57:43;4.53;;;2.30;;
53646;SDS011;39550;52.230;5.194;2023-04-15T14:00:09;4.97;;;2.47;;
53646;SDS011;39550;52.230;5.194;2023-04-15T14:02:35;6.00;;;2.30;;
53646;SDS011;39550;52.230;5.194;2023-04-15T14:05:01;7.50;;;2.80;;
53646;SDS011;39550;52.230;5.194;2023-04-15T14:07:27;4.75;;;2.78;;
53646;SDS011;39550;52.230;5.194;2023-04-15T14:09:53;7.25;;;2.63;;
53646;SDS011;39550;52.230;5.194;2023-04-15T14:12:19;5.10;;;2.70;;
53646;SDS011;39550;52.230;5.194;2023-04-15T14:14:44;4.90;;;2.97;;
53646;SDS011;39550;52.230;5.194;2023-04-15T14:17:09;5.50;;;2.60;;
53646;SDS011;39550;52.230;5.194;2023-04-15T14:19:35;7.80;;;2.83;;
53646;SDS011;39550;52.230;5.194;2023-04-15T14:22:00;8.98;;;2.90;;
53646;SDS011;39550;52.230;5.194;2023-04-15T14:24:25;4.57;;;2.63;;
53646;SDS011;39550;52.230;5.194;2023-04-15T14:26:51;6.32;;;2.60;;
53646;SDS011;39550;52.230;5.194;2023-04-15T14:29:17;5.28;;;2.78;;
53646;SDS011;39550;52.230;5.194;2023-04-15T14:31:42;4.32;;;2.42;;
53646;SDS011;39550;52.230;5.194;2023-04-15T14:34:09;6.43;;;2.58;;
53646;SDS011;39550;52.230;5.194;2023-04-15T14:36:34;6.10;;;3.00;;
53646;SDS011;39550;52.230;5.194;2023-04-15T14:39:00;5.50;;;2.40;;
53646;SDS011;39550;52.230;5.194;2023-04-15T14:41:25;6.22;;;2.75;;
53646;SDS011;39550;52.230;5.194;2023-04-15T14:43:50;6.30;;;2.65;;
53646;SDS011;39550;52.230;5.194;2023-04-15T14:46:16;5.38;;;2.50;;
53646;SDS011;39550;52.230;5.194;2023-04-15T14:48:41;8.43;;;2.70;;
53646;SDS011;39550;52.230;5.194;2023-04-15T14:51:07;4.03;;;2.35;;
53646;SDS011;39550;52.230;5.194;2023-04-15T14:53:32;6.82;;;2.58;;
53646;SDS011;39550;52.230;5.194;2023-04-15T14:55:57;7.07;;;3.22;;
53646;SDS011;39550;52.230;5.194;2023-04-15T14:58:23;7.63;;;2.70;;
53646;SDS011;39550;52.230;5.194;2023-04-15T15:00:48;5.25;;;2.72;;
53646;SDS011;39550;52.230;5.194;2023-04-15T15:03:14;5.25;;;2.60;;
53646;SDS011;39550;52.230;5.194;2023-04-15T15:05:43;5.38;;;2.20;;
53646;SDS011;39550;52.230;5.194;2023-04-15T15:08:10;5.50;;;2.38;;
53646;SDS011;39550;52.230;5.194;2023-04-15T15:10:36;7.25;;;2.70;;
53646;SDS011;39550;52.230;5.194;2023-04-15T15:13:03;4.68;;;2.45;;
53646;SDS011;39550;52.230;5.194;2023-04-15T15:15:30;6.18;;;2.40;;
53646;SDS011;39550;52.230;5.194;2023-04-15T15:17:55;6.82;;;2.92;;